createdAt,value
2023-03-13T00:00:56.408Z,6.40
2023-03-13T00:03:23.097Z,6.30
2023-03-13T00:05:49.860Z,6.40
2023-03-13T00:08:16.457Z,6.40
2023-03-13T00:10:43.121Z,6.40
2023-03-13T00:13:10.161Z,6.50
2023-03-13T00:15:36.820Z,6.50
2023-03-13T00:18:03.555Z,6.50
2023-03-13T00:20:30.241Z,6.50
2023-03-13T00:22:56.945Z,6.50
2023-03-13T00:25:23.764Z,6.50
2023-03-13T00:27:50.369Z,6.50
2023-03-13T00:30:17.317Z,6.50
2023-03-13T00:32:46.222Z,6.50
2023-03-13T00:35:16.362Z,6.50
2023-03-13T00:37:43.293Z,6.50
2023-03-13T00:40:10.476Z,6.40
2023-03-13T00:42:37.176Z,6.50
2023-03-13T00:45:04.230Z,6.50
2023-03-13T00:47:30.927Z,6.50
2023-03-13T00:49:57.557Z,6.50
2023-03-13T00:52:24.947Z,6.50
2023-03-13T00:54:51.662Z,6.60
2023-03-13T00:57:18.285Z,6.60
2023-03-13T00:59:44.876Z,6.50
2023-03-13T01:02:11.670Z,6.60
2023-03-13T01:04:38.344Z,6.60
2023-03-13T01:07:05.036Z,6.60
2023-03-13T01:09:31.638Z,6.60
2023-03-13T01:11:58.416Z,6.60
2023-03-13T01:14:25.040Z,6.60
2023-03-13T01:16:51.714Z,6.70
2023-03-13T01:19:19.342Z,6.70
2023-03-13T01:21:46.569Z,6.70
2023-03-13T01:24:13.652Z,6.80
2023-03-13T01:26:40.441Z,6.80
2023-03-13T01:29:07.024Z,6.90
2023-03-13T01:31:35.696Z,6.90
2023-03-13T01:34:05.568Z,7.00
2023-03-13T01:36:33.273Z,6.90
2023-03-13T01:39:01.207Z,7.00
2023-03-13T01:41:30.267Z,7.00
2023-03-13T01:43:57.620Z,7.00
2023-03-13T01:46:27.674Z,7.00
2023-03-13T01:49:05.638Z,7.00
2023-03-13T01:51:37.362Z,7.10
2023-03-13T01:54:08.964Z,7.10
2023-03-13T01:56:45.389Z,7.10
2023-03-13T01:59:16.854Z,7.20
2023-03-13T02:01:45.860Z,7.20
2023-03-13T02:04:15.328Z,7.20
2023-03-13T02:06:45.188Z,7.30
2023-03-13T02:09:18.678Z,7.30
2023-03-13T02:11:51.581Z,7.30
2023-03-13T02:14:22.429Z,7.40
2023-03-13T02:16:52.006Z,7.40
2023-03-13T02:19:28.203Z,7.50
2023-03-13T02:22:22.256Z,7.50
2023-03-13T02:25:03.824Z,7.60
2023-03-13T02:27:30.512Z,7.60
2023-03-13T02:29:58.403Z,7.60
2023-03-13T02:32:27.121Z,7.70
2023-03-13T02:34:58.346Z,7.70
2023-03-13T02:37:28.575Z,7.70
2023-03-13T02:39:57.146Z,7.70
2023-03-13T02:42:24.629Z,7.80
2023-03-13T02:44:52.193Z,7.80
2023-03-13T02:47:23.502Z,7.80
2023-03-13T02:49:51.077Z,7.90
2023-03-13T02:52:41.972Z,7.90
2023-03-13T02:55:14.319Z,7.90
2023-03-13T02:57:40.949Z,7.90
2023-03-13T03:00:12.448Z,7.90
2023-03-13T03:02:39.462Z,7.90
2023-03-13T03:05:07.229Z,8.00
2023-03-13T03:07:33.894Z,8.00
2023-03-13T03:10:00.620Z,8.00
2023-03-13T03:12:27.339Z,8.10
2023-03-13T03:14:54.025Z,8.10
2023-03-13T03:17:20.754Z,8.10
2023-03-13T03:19:47.346Z,8.10
2023-03-13T03:22:13.989Z,8.10
2023-03-13T03:24:40.606Z,8.10
2023-03-13T03:27:07.280Z,8.10
2023-03-13T03:29:33.885Z,8.00
2023-03-13T03:32:00.621Z,8.10
2023-03-13T03:34:27.401Z,8.10
2023-03-13T03:36:54.048Z,8.00
2023-03-13T03:39:20.680Z,8.00
2023-03-13T03:41:47.446Z,8.10
2023-03-13T03:44:14.130Z,8.00
2023-03-13T03:46:40.973Z,8.00
2023-03-13T03:49:07.618Z,8.00
2023-03-13T03:51:34.338Z,8.00
2023-03-13T03:54:00.983Z,8.00
2023-03-13T03:56:27.556Z,8.00
2023-03-13T03:58:54.186Z,8.00
2023-03-13T04:01:20.805Z,8.10
2023-03-13T04:03:48.798Z,8.10
2023-03-13T04:06:15.592Z,8.10
2023-03-13T04:08:42.298Z,8.10
2023-03-13T04:11:09.138Z,8.30
2023-03-13T04:13:35.777Z,8.30
2023-03-13T04:16:10.493Z,8.30
2023-03-13T04:18:37.121Z,8.40
2023-03-13T04:21:05.527Z,8.40
2023-03-13T04:23:32.141Z,8.40
2023-03-13T04:25:58.788Z,8.40
2023-03-13T04:28:25.463Z,8.30
2023-03-13T04:33:34.218Z,8.30
2023-03-13T04:36:00.836Z,8.20
2023-03-13T04:38:27.522Z,8.20
2023-03-13T04:40:54.228Z,8.20
2023-03-13T04:43:20.914Z,8.20
2023-03-13T04:45:47.587Z,8.20
2023-03-13T04:48:14.604Z,8.20
2023-03-13T04:50:41.246Z,8.20
2023-03-13T04:53:07.900Z,8.20
2023-03-13T04:55:34.556Z,8.20
2023-03-13T04:58:01.161Z,8.20
2023-03-13T05:00:27.800Z,8.20
2023-03-13T05:02:54.469Z,8.20
2023-03-13T05:05:21.340Z,8.20
2023-03-13T05:07:48.092Z,8.20
2023-03-13T05:10:15.026Z,8.10
2023-03-13T05:12:41.684Z,8.10
2023-03-13T05:15:08.902Z,8.10
2023-03-13T05:17:35.661Z,8.10
2023-03-13T05:20:02.400Z,8.10
2023-03-13T05:22:29.045Z,8.10
2023-03-13T05:24:55.723Z,8.10
2023-03-13T05:27:22.409Z,8.10
2023-03-13T05:29:49.119Z,8.10
2023-03-13T05:32:15.743Z,8.10
2023-03-13T05:34:42.450Z,8.10
2023-03-13T05:37:09.186Z,8.10
2023-03-13T05:39:35.900Z,8.20
2023-03-13T05:42:02.689Z,8.20
2023-03-13T05:44:29.471Z,8.20
2023-03-13T05:46:56.158Z,8.20
2023-03-13T05:49:22.802Z,8.30
2023-03-13T05:51:49.429Z,8.30
2023-03-13T05:54:16.218Z,8.40
2023-03-13T05:56:42.907Z,8.40
2023-03-13T05:59:09.534Z,8.50
2023-03-13T06:01:36.781Z,8.50
2023-03-13T06:04:03.507Z,8.50
2023-03-13T06:06:30.285Z,8.50
2023-03-13T06:08:56.937Z,8.60
2023-03-13T06:11:23.773Z,8.50
2023-03-13T06:13:52.840Z,8.50
2023-03-13T06:16:20.836Z,8.50
2023-03-13T06:18:47.537Z,8.60
2023-03-13T06:21:14.406Z,8.60
2023-03-13T06:23:42.239Z,8.70
2023-03-13T06:26:08.898Z,8.70
2023-03-13T06:28:35.614Z,8.70
2023-03-13T06:31:06.684Z,8.70
2023-03-13T06:33:33.757Z,8.80
2023-03-13T06:36:01.809Z,8.80
2023-03-13T06:38:29.428Z,8.80
2023-03-13T06:40:56.512Z,8.90
2023-03-13T06:43:23.558Z,8.90
2023-03-13T06:45:52.740Z,8.90
2023-03-13T06:48:19.476Z,9.00
2023-03-13T06:50:46.170Z,9.00
2023-03-13T06:53:18.229Z,9.10
2023-03-13T06:55:45.637Z,9.10
2023-03-13T06:58:25.348Z,9.10
2023-03-13T07:00:55.793Z,9.10
2023-03-13T07:03:22.637Z,9.10
2023-03-13T07:05:49.244Z,9.20
2023-03-13T07:08:15.911Z,9.20
2023-03-13T07:10:43.323Z,9.20
2023-03-13T07:13:10.002Z,9.30
2023-03-13T07:15:36.651Z,9.30
2023-03-13T07:18:03.268Z,9.30
2023-03-13T07:20:30.028Z,9.40
2023-03-13T07:22:56.817Z,9.50
2023-03-13T07:25:23.481Z,9.50
2023-03-13T07:27:52.420Z,9.50
2023-03-13T07:30:20.080Z,9.50
2023-03-13T07:32:46.797Z,9.60
2023-03-13T07:35:13.471Z,9.60
2023-03-13T07:37:40.117Z,9.60
2023-03-13T07:40:09.212Z,9.60
2023-03-13T07:42:35.975Z,9.60
2023-03-13T07:45:02.730Z,9.70
2023-03-13T07:47:29.350Z,9.70
2023-03-13T07:49:55.973Z,9.70
2023-03-13T07:52:23.038Z,9.70
2023-03-13T07:54:49.658Z,9.80
2023-03-13T07:57:16.388Z,9.80
2023-03-13T07:59:42.997Z,9.80
2023-03-13T08:02:13.740Z,9.80
2023-03-13T08:04:40.770Z,9.90
2023-03-13T08:07:11.316Z,9.80
2023-03-13T08:09:38.427Z,9.90
2023-03-13T08:12:05.350Z,9.90
2023-03-13T08:14:32.080Z,10.00
2023-03-13T08:16:58.802Z,10.00
2023-03-13T08:19:25.729Z,10.00
2023-03-13T08:21:52.428Z,10.10
2023-03-13T08:24:19.151Z,10.10
2023-03-13T08:26:45.781Z,10.10
2023-03-13T08:29:14.624Z,10.20
2023-03-13T08:31:49.884Z,10.30
2023-03-13T08:34:17.953Z,10.30
2023-03-13T08:36:45.050Z,10.30
2023-03-13T08:39:14.603Z,10.40
2023-03-13T08:41:41.342Z,10.50
2023-03-13T08:44:11.217Z,10.50
2023-03-13T08:46:38.796Z,10.70
2023-03-13T08:49:07.737Z,10.70
2023-03-13T08:51:35.423Z,10.80
2023-03-13T08:54:03.415Z,10.90
2023-03-13T08:56:31.975Z,11.10
2023-03-13T08:59:01.078Z,11.20
2023-03-13T09:01:31.102Z,11.30
2023-03-13T09:03:58.156Z,11.30
2023-03-13T09:06:24.904Z,11.40
2023-03-13T09:08:51.742Z,11.50
2023-03-13T09:11:20.439Z,11.60
2023-03-13T09:13:49.489Z,11.70
2023-03-13T09:16:18.686Z,11.80
2023-03-13T09:18:46.177Z,12.00
2023-03-13T09:21:19.049Z,12.20
2023-03-13T09:23:45.789Z,12.30
2023-03-13T09:26:13.434Z,12.30
2023-03-13T09:28:42.040Z,12.40
2023-03-13T09:31:12.991Z,12.50
2023-03-13T09:33:40.328Z,12.50
2023-03-13T09:36:08.248Z,12.80
2023-03-13T09:38:35.647Z,12.90
2023-03-13T09:41:16.851Z,13.00
2023-03-13T09:43:43.499Z,13.00
2023-03-13T09:46:35.528Z,13.00
2023-03-13T09:49:43.432Z,12.90
2023-03-13T09:52:29.020Z,12.90
2023-03-13T09:55:05.858Z,13.00
2023-03-13T09:57:54.252Z,13.30
2023-03-13T10:00:54.832Z,13.30
2023-03-13T10:03:27.496Z,13.20
2023-03-13T10:05:57.620Z,13.10
2023-03-13T10:08:35.131Z,13.00
2023-03-13T10:11:08.113Z,13.00
2023-03-13T10:13:49.120Z,13.00
2023-03-13T10:16:29.210Z,12.90
2023-03-13T10:18:59.281Z,12.80
2023-03-13T10:21:33.819Z,12.70
2023-03-13T10:24:11.726Z,12.70
2023-03-13T10:26:38.404Z,12.70
2023-03-13T10:29:21.076Z,12.80
2023-03-13T10:31:59.160Z,12.90
2023-03-13T10:34:28.026Z,13.00
2023-03-13T10:36:59.270Z,13.00
2023-03-13T10:39:30.079Z,13.00
2023-03-13T10:42:11.144Z,13.00
2023-03-13T10:44:38.159Z,13.10
2023-03-13T10:47:06.199Z,13.20
2023-03-13T10:49:33.932Z,13.30
2023-03-13T10:52:03.364Z,13.40
2023-03-13T10:54:35.118Z,13.40
2023-03-13T10:57:31.860Z,13.30
2023-03-13T10:59:59.408Z,13.30
2023-03-13T11:02:32.432Z,13.20
2023-03-13T11:04:59.804Z,13.10
2023-03-13T11:07:33.679Z,13.10
2023-03-13T11:10:20.731Z,13.10
2023-03-13T11:12:52.985Z,13.00
2023-03-13T11:15:32.607Z,13.00
2023-03-13T11:18:26.044Z,13.10
2023-03-13T11:20:53.626Z,13.20
2023-03-13T11:23:27.718Z,13.20
2023-03-13T11:26:19.220Z,13.20
2023-03-13T11:28:55.184Z,13.20
2023-03-13T11:31:29.666Z,13.10
2023-03-13T11:34:11.707Z,13.10
2023-03-13T11:37:15.060Z,13.10
2023-03-13T11:39:59.564Z,13.20
2023-03-13T11:42:40.172Z,13.30
2023-03-13T11:45:42.050Z,13.40
2023-03-13T11:48:36.030Z,13.50
2023-03-13T11:51:31.596Z,13.50
2023-03-13T11:54:09.902Z,13.60
2023-03-13T11:56:49.131Z,13.70
2023-03-13T11:59:52.985Z,13.80
2023-03-13T12:02:28.129Z,13.80
2023-03-13T12:05:00.423Z,13.70
2023-03-13T12:07:30.877Z,13.80
2023-03-13T12:10:02.157Z,13.90
2023-03-13T12:12:44.650Z,13.90
2023-03-13T12:15:15.018Z,13.90
2023-03-13T12:17:50.650Z,13.90
2023-03-13T12:20:30.924Z,13.90
2023-03-13T12:23:02.768Z,14.00
2023-03-13T12:26:00.482Z,14.00
2023-03-13T12:28:30.093Z,14.00
2023-03-13T12:31:06.901Z,14.10
2023-03-13T12:34:18.464Z,14.10
2023-03-13T12:36:52.713Z,14.10
2023-03-13T12:39:50.447Z,13.90
2023-03-13T12:42:57.105Z,13.80
2023-03-13T12:45:26.169Z,13.80
2023-03-13T12:48:11.288Z,13.80
2023-03-13T12:50:49.887Z,13.90
2023-03-13T12:53:44.590Z,13.90
2023-03-13T12:56:55.843Z,13.90
2023-03-13T12:59:36.956Z,13.80
2023-03-13T13:02:21.710Z,13.80
2023-03-13T13:04:50.897Z,13.70
2023-03-13T13:07:20.430Z,13.70
2023-03-13T13:10:01.241Z,13.70
2023-03-13T13:12:27.998Z,13.60
2023-03-13T13:15:11.433Z,13.60
2023-03-13T13:18:01.616Z,13.50
2023-03-13T13:20:38.985Z,13.50
2023-03-13T13:23:34.166Z,13.50
2023-03-13T13:26:36.754Z,13.40
2023-03-13T13:29:12.683Z,13.40
2023-03-13T13:31:49.511Z,13.40
2023-03-13T13:34:28.538Z,13.40
2023-03-13T13:36:57.147Z,13.40
2023-03-13T13:39:38.971Z,13.40
2023-03-13T13:42:33.453Z,13.40
2023-03-13T13:45:14.958Z,13.30
2023-03-13T13:47:44.479Z,13.30
2023-03-13T13:50:30.939Z,13.20
2023-03-13T13:53:33.377Z,13.20
2023-03-13T13:56:00.108Z,13.20
2023-03-13T13:58:30.034Z,13.20
2023-03-13T14:01:11.346Z,13.20
2023-03-13T14:03:42.341Z,13.10
2023-03-13T14:06:26.950Z,13.10
2023-03-13T14:08:57.653Z,13.00
2023-03-13T14:11:31.376Z,13.00
2023-03-13T14:14:30.449Z,13.00
2023-03-13T14:16:57.974Z,13.00
2023-03-13T14:19:30.524Z,13.00
2023-03-13T14:22:02.628Z,13.10
2023-03-13T14:24:29.363Z,13.10
2023-03-13T14:26:56.138Z,13.10
2023-03-13T14:29:26.134Z,13.10
2023-03-13T14:31:58.612Z,13.10
2023-03-13T14:34:27.421Z,13.00
2023-03-13T14:37:14.970Z,13.00
2023-03-13T14:39:45.439Z,13.00
2023-03-13T14:42:17.534Z,12.90
2023-03-13T14:44:46.563Z,12.90
2023-03-13T14:47:26.877Z,12.80
2023-03-13T14:49:59.393Z,12.70
2023-03-13T14:52:28.843Z,12.70
2023-03-13T14:54:58.014Z,12.60
2023-03-13T14:57:27.434Z,12.60
2023-03-13T14:59:55.598Z,12.50
2023-03-13T15:02:24.301Z,12.40
2023-03-13T15:04:53.242Z,12.40
2023-03-13T15:07:20.471Z,12.40
2023-03-13T15:09:48.779Z,12.40
2023-03-13T15:12:22.606Z,12.30
2023-03-13T15:14:52.713Z,12.40
2023-03-13T15:17:25.840Z,12.40
2023-03-13T15:19:57.936Z,12.40
2023-03-13T15:22:29.001Z,12.40
2023-03-13T15:25:05.689Z,12.30
2023-03-13T15:27:33.552Z,12.30
2023-03-13T15:30:00.243Z,12.40
2023-03-13T15:32:33.580Z,12.40
2023-03-13T15:35:01.922Z,12.40
2023-03-13T15:37:30.244Z,12.50
2023-03-13T15:39:57.788Z,12.50
2023-03-13T15:42:24.858Z,12.60
2023-03-13T15:44:51.550Z,12.60
2023-03-13T15:47:20.965Z,12.70
2023-03-13T15:49:48.308Z,12.70
2023-03-13T15:52:18.881Z,12.70
2023-03-13T15:54:49.870Z,12.70
2023-03-13T15:57:25.496Z,12.70
2023-03-13T15:59:53.690Z,12.70
2023-03-13T16:02:23.263Z,12.70
2023-03-13T16:04:51.049Z,12.60
2023-03-13T16:07:21.528Z,12.60
2023-03-13T16:09:48.790Z,12.60
2023-03-13T16:12:15.474Z,12.60
2023-03-13T16:14:42.515Z,12.50
2023-03-13T16:17:15.629Z,12.50
2023-03-13T16:19:43.189Z,12.50
2023-03-13T16:22:10.505Z,12.50
2023-03-13T16:24:37.141Z,12.50
2023-03-13T16:27:16.783Z,12.60
2023-03-13T16:29:44.651Z,12.60
2023-03-13T16:32:18.687Z,12.60
2023-03-13T16:34:45.390Z,12.70
2023-03-13T16:37:14.029Z,12.80
2023-03-13T16:39:41.303Z,12.80
2023-03-13T16:42:08.470Z,12.80
2023-03-13T16:44:35.089Z,12.80
2023-03-13T16:47:05.852Z,12.80
2023-03-13T16:49:33.051Z,12.80
2023-03-13T16:51:59.668Z,12.80
2023-03-13T16:54:26.305Z,12.70
2023-03-13T16:56:52.986Z,12.80
2023-03-13T16:59:19.781Z,12.80
2023-03-13T17:01:47.143Z,12.90
2023-03-13T17:04:14.183Z,12.80
2023-03-13T17:06:44.431Z,12.80
2023-03-13T17:09:14.808Z,12.70
2023-03-13T17:11:41.739Z,12.70
2023-03-13T17:14:08.493Z,12.70
2023-03-13T17:16:38.487Z,12.60
2023-03-13T17:19:08.473Z,12.60
2023-03-13T17:21:36.635Z,12.60
2023-03-13T17:24:03.858Z,12.50
2023-03-13T17:26:36.477Z,12.50
2023-03-13T17:29:05.113Z,12.50
2023-03-13T17:31:37.367Z,12.50
2023-03-13T17:34:05.635Z,12.40
2023-03-13T17:36:32.414Z,12.30
2023-03-13T17:39:01.837Z,12.30
2023-03-13T17:41:31.810Z,12.20
2023-03-13T17:44:03.714Z,12.20
2023-03-13T17:46:39.095Z,12.10
2023-03-13T17:49:07.638Z,12.10
2023-03-13T17:51:35.641Z,12.10
2023-03-13T17:54:02.974Z,12.00
2023-03-13T17:56:30.948Z,12.00
2023-03-13T17:58:59.812Z,12.00
2023-03-13T18:01:31.016Z,12.00
2023-03-13T18:03:58.377Z,11.90
2023-03-13T18:06:39.775Z,11.90
2023-03-13T18:09:11.908Z,11.90
2023-03-13T18:11:38.990Z,12.00
2023-03-13T18:14:06.586Z,11.90
2023-03-13T18:16:42.778Z,12.00
2023-03-13T18:19:19.938Z,11.90
2023-03-13T18:21:49.980Z,11.80
2023-03-13T18:24:20.068Z,11.80
2023-03-13T18:26:48.033Z,11.80
2023-03-13T18:29:16.248Z,11.80
2023-03-13T18:31:43.836Z,11.80
2023-03-13T18:34:11.614Z,11.80
2023-03-13T18:36:39.049Z,11.80
2023-03-13T18:39:06.468Z,11.70
2023-03-13T18:41:34.293Z,11.70
2023-03-13T18:44:03.969Z,11.80
2023-03-13T18:46:31.960Z,11.70
2023-03-13T18:48:58.880Z,11.70
2023-03-13T18:51:26.158Z,11.70
2023-03-13T18:53:54.124Z,11.60
2023-03-13T18:56:27.855Z,11.60
2023-03-13T18:58:55.804Z,11.60
2023-03-13T19:01:25.018Z,11.50
2023-03-13T19:03:51.840Z,11.50
2023-03-13T19:06:25.737Z,11.50
2023-03-13T19:08:56.116Z,11.50
2023-03-13T19:11:25.970Z,11.40
2023-03-13T19:13:52.894Z,11.30
2023-03-13T19:16:39.993Z,11.30
2023-03-13T19:19:12.734Z,11.30
2023-03-13T19:21:40.061Z,11.30
2023-03-13T19:24:07.082Z,11.20
2023-03-13T19:26:41.041Z,11.20
2023-03-13T19:29:16.825Z,11.20
2023-03-13T19:31:43.980Z,11.20
2023-03-13T19:34:11.071Z,11.20
2023-03-13T19:36:40.333Z,11.20
2023-03-13T19:39:16.925Z,11.20
2023-03-13T19:41:43.907Z,11.20
2023-03-13T19:44:11.012Z,11.20
2023-03-13T19:46:43.100Z,11.30
2023-03-13T19:49:13.020Z,11.30
2023-03-13T19:51:39.919Z,11.30
2023-03-13T19:54:07.556Z,11.20
2023-03-13T19:56:34.255Z,11.30
2023-03-13T19:59:05.326Z,11.30
2023-03-13T20:01:32.701Z,11.30
2023-03-13T20:03:59.642Z,11.30
2023-03-13T20:06:29.022Z,11.40
2023-03-13T20:08:57.666Z,11.30
2023-03-13T20:11:25.819Z,11.30
2023-03-13T20:13:52.950Z,11.40
2023-03-13T20:16:21.748Z,11.30
2023-03-13T20:18:49.652Z,11.40
2023-03-13T20:21:17.898Z,11.40
2023-03-13T20:23:49.626Z,11.40
2023-03-13T20:26:18.234Z,11.30
2023-03-13T20:28:47.279Z,11.30
2023-03-13T20:31:16.764Z,11.30
2023-03-13T20:33:43.491Z,11.30
2023-03-13T20:36:15.987Z,11.30
2023-03-13T20:38:43.534Z,11.20
2023-03-13T20:41:10.988Z,11.20
2023-03-13T20:43:38.754Z,11.10
2023-03-13T20:46:09.465Z,11.10
2023-03-13T20:48:39.264Z,11.10
2023-03-13T20:51:08.036Z,11.10
2023-03-13T20:53:36.853Z,11.10
2023-03-13T20:56:06.579Z,11.10
2023-03-13T20:58:33.838Z,11.00
2023-03-13T21:01:01.458Z,11.00
2023-03-13T21:03:28.522Z,10.90
2023-03-13T21:05:55.320Z,10.90
2023-03-13T21:08:22.787Z,10.90
2023-03-13T21:10:50.375Z,10.80
2023-03-13T21:13:17.069Z,10.90
2023-03-13T21:15:43.748Z,10.90
2023-03-13T21:18:10.364Z,10.90
2023-03-13T21:20:38.848Z,10.90
2023-03-13T21:23:05.534Z,10.90
2023-03-13T21:25:32.157Z,10.80
2023-03-13T21:27:58.781Z,10.80
2023-03-13T21:30:25.457Z,10.80
2023-03-13T21:32:52.209Z,10.80
2023-03-13T21:35:18.930Z,10.80
2023-03-13T21:37:45.855Z,10.80
2023-03-13T21:40:13.095Z,10.70
2023-03-13T21:42:40.044Z,10.70
2023-03-13T21:45:07.677Z,10.70
2023-03-13T21:47:37.101Z,10.70
2023-03-13T21:50:08.218Z,10.60
2023-03-13T21:52:41.211Z,10.60
2023-03-13T21:55:11.529Z,10.60
2023-03-13T21:57:38.375Z,10.50
2023-03-13T22:00:08.164Z,10.50
2023-03-13T22:02:35.992Z,10.40
2023-03-13T22:05:04.522Z,10.40
2023-03-13T22:07:31.174Z,10.30
2023-03-13T22:09:58.180Z,10.30
2023-03-13T22:12:25.614Z,10.20
2023-03-13T22:14:52.946Z,10.10
2023-03-13T22:17:20.396Z,10.10
2023-03-13T22:19:47.808Z,10.00
2023-03-13T22:22:15.528Z,9.90
2023-03-13T22:24:42.186Z,9.80
2023-03-13T22:27:12.735Z,9.70
2023-03-13T22:29:39.562Z,9.80
2023-03-13T22:32:06.348Z,9.80
2023-03-13T22:34:33.006Z,9.90
2023-03-13T22:36:59.589Z,10.00
2023-03-13T22:39:26.326Z,10.00
2023-03-13T22:41:52.941Z,10.00
2023-03-13T22:44:19.682Z,10.10
2023-03-13T22:46:46.358Z,10.10
2023-03-13T22:49:13.037Z,10.10
2023-03-13T22:51:39.697Z,10.10
2023-03-13T22:54:06.361Z,10.10
2023-03-13T22:56:33.070Z,10.10
2023-03-13T22:58:59.769Z,10.10
2023-03-13T23:01:26.676Z,10.10
2023-03-13T23:03:53.415Z,10.00
2023-03-13T23:06:22.932Z,10.00
2023-03-13T23:08:50.452Z,10.00
2023-03-13T23:11:17.862Z,9.90
2023-03-13T23:13:44.535Z,9.80
2023-03-13T23:16:12.076Z,9.80
2023-03-13T23:18:39.661Z,9.70
2023-03-13T23:21:08.763Z,9.70
2023-03-13T23:23:35.686Z,9.70
2023-03-13T23:26:04.587Z,9.60
2023-03-13T23:28:31.582Z,9.60
2023-03-13T23:30:58.308Z,9.60
2023-03-13T23:33:24.992Z,9.60
2023-03-13T23:35:51.694Z,9.50
2023-03-13T23:38:23.789Z,9.50
2023-03-13T23:40:50.480Z,9.50
2023-03-13T23:43:17.203Z,9.50
2023-03-13T23:45:43.867Z,9.60
2023-03-13T23:48:10.510Z,9.60
2023-03-13T23:50:37.199Z,9.60
2023-03-13T23:53:03.907Z,9.60
2023-03-13T23:55:30.539Z,9.60
2023-03-13T23:57:57.269Z,9.60
